sensor_id;sensor_type;location;lat;lon;timestamp;P1;durP1;ratioP1;P2;durP2;ratioP2
12689;SDS011;6409;56.294;14.480;2023-03-11T00:00:00;0.73;;;0.73;;
12689;SDS011;6409;56.294;14.480;2023-03-11T00:02:28;0.80;;;0.80;;
12689;SDS011;6409;56.294;14.480;2023-03-11T00:04:56;0.93;;;0.93;;
12689;SDS011;6409;56.294;14.480;2023-03-11T00:07:25;1.40;;;1.27;;
12689;SDS011;6409;56.294;14.480;2023-03-11T00:09:52;3.87;;;1.00;;
12689;SDS011;6409;56.294;14.480;2023-03-11T00:12:19;0.90;;;0.90;;
12689;SDS011;6409;56.294;14.480;2023-03-11T00:14:46;0.90;;;0.90;;
12689;SDS011;6409;56.294;14.480;2023-03-11T00:17:13;1.03;;;1.00;;
12689;SDS011;6409;56.294;14.480;2023-03-11T00:19:40;0.60;;;0.60;;
12689;SDS011;6409;56.294;14.480;2023-03-11T00:22:07;0.93;;;0.93;;
12689;SDS011;6409;56.294;14.480;2023-03-11T00:24:35;1.07;;;1.07;;
12689;SDS011;6409;56.294;14.480;2023-03-11T00:27:02;0.90;;;0.90;;
12689;SDS011;6409;56.294;14.480;2023-03-11T00:29:31;0.80;;;0.80;;
12689;SDS011;6409;56.294;14.480;2023-03-11T00:31:58;0.87;;;0.87;;
12689;SDS011;6409;56.294;14.480;2023-03-11T00:34:25;2.00;;;1.30;;
12689;SDS011;6409;56.294;14.480;2023-03-11T00:36:51;1.27;;;1.17;;
12689;SDS011;6409;56.294;14.480;2023-03-11T00:39:18;1.03;;;0.87;;
12689;SDS011;6409;56.294;14.480;2023-03-11T00:41:47;1.00;;;0.83;;
12689;SDS011;6409;56.294;14.480;2023-03-11T00:44:14;0.73;;;0.73;;
12689;SDS011;6409;56.294;14.480;2023-03-11T00:46:41;0.80;;;0.80;;
12689;SDS011;6409;56.294;14.480;2023-03-11T00:49:08;1.03;;;1.00;;
12689;SDS011;6409;56.294;14.480;2023-03-11T00:51:36;1.10;;;0.90;;
12689;SDS011;6409;56.294;14.480;2023-03-11T00:54:03;0.93;;;0.93;;
12689;SDS011;6409;56.294;14.480;2023-03-11T00:56:30;0.70;;;0.70;;
12689;SDS011;6409;56.294;14.480;2023-03-11T00:58:58;1.13;;;0.90;;
12689;SDS011;6409;56.294;14.480;2023-03-11T01:01:25;0.73;;;0.73;;
12689;SDS011;6409;56.294;14.480;2023-03-11T01:03:52;2.23;;;0.93;;
12689;SDS011;6409;56.294;14.480;2023-03-11T01:06:18;0.70;;;0.70;;
12689;SDS011;6409;56.294;14.480;2023-03-11T01:08:45;1.40;;;0.90;;
12689;SDS011;6409;56.294;14.480;2023-03-11T01:11:12;0.97;;;0.80;;
12689;SDS011;6409;56.294;14.480;2023-03-11T01:13:39;0.97;;;0.97;;
12689;SDS011;6409;56.294;14.480;2023-03-11T01:16:07;1.00;;;1.00;;
12689;SDS011;6409;56.294;14.480;2023-03-11T01:18:34;0.97;;;0.90;;
12689;SDS011;6409;56.294;14.480;2023-03-11T01:21:01;0.77;;;0.77;;
12689;SDS011;6409;56.294;14.480;2023-03-11T01:23:28;0.70;;;0.70;;
12689;SDS011;6409;56.294;14.480;2023-03-11T01:25:56;2.60;;;0.90;;
12689;SDS011;6409;56.294;14.480;2023-03-11T01:28:23;0.60;;;0.60;;
12689;SDS011;6409;56.294;14.480;2023-03-11T01:30:50;0.50;;;0.50;;
12689;SDS011;6409;56.294;14.480;2023-03-11T01:33:18;0.80;;;0.80;;
12689;SDS011;6409;56.294;14.480;2023-03-11T01:35:45;0.83;;;0.83;;
12689;SDS011;6409;56.294;14.480;2023-03-11T01:38:13;1.00;;;0.90;;
12689;SDS011;6409;56.294;14.480;2023-03-11T01:40:41;0.83;;;0.83;;
12689;SDS011;6409;56.294;14.480;2023-03-11T01:46:08;0.80;;;0.80;;
12689;SDS011;6409;56.294;14.480;2023-03-11T01:48:38;0.80;;;0.80;;
12689;SDS011;6409;56.294;14.480;2023-03-11T01:51:06;0.90;;;0.90;;
12689;SDS011;6409;56.294;14.480;2023-03-11T01:53:33;0.97;;;0.83;;
12689;SDS011;6409;56.294;14.480;2023-03-11T01:56:01;1.00;;;1.00;;
12689;SDS011;6409;56.294;14.480;2023-03-11T01:58:30;1.37;;;1.27;;
12689;SDS011;6409;56.294;14.480;2023-03-11T02:00:59;2.80;;;0.90;;
12689;SDS011;6409;56.294;14.480;2023-03-11T02:03:28;0.80;;;0.80;;
12689;SDS011;6409;56.294;14.480;2023-03-11T02:05:58;3.13;;;0.90;;
12689;SDS011;6409;56.294;14.480;2023-03-11T02:08:26;0.83;;;0.83;;
12689;SDS011;6409;56.294;14.480;2023-03-11T02:10:58;0.70;;;0.70;;
12689;SDS011;6409;56.294;14.480;2023-03-11T02:13:26;1.17;;;0.90;;
12689;SDS011;6409;56.294;14.480;2023-03-11T02:15:53;0.60;;;0.60;;
12689;SDS011;6409;56.294;14.480;2023-03-11T02:18:20;1.13;;;0.90;;
12689;SDS011;6409;56.294;14.480;2023-03-11T02:20:48;2.30;;;1.30;;
12689;SDS011;6409;56.294;14.480;2023-03-11T02:23:22;1.40;;;0.87;;
12689;SDS011;6409;56.294;14.480;2023-03-11T02:25:52;1.07;;;1.03;;
12689;SDS011;6409;56.294;14.480;2023-03-11T02:28:24;1.20;;;1.10;;
12689;SDS011;6409;56.294;14.480;2023-03-11T02:30:52;1.77;;;1.03;;
12689;SDS011;6409;56.294;14.480;2023-03-11T02:33:22;0.90;;;0.80;;
12689;SDS011;6409;56.294;14.480;2023-03-11T02:35:50;0.90;;;0.90;;
12689;SDS011;6409;56.294;14.480;2023-03-11T02:38:17;1.03;;;1.00;;
12689;SDS011;6409;56.294;14.480;2023-03-11T02:40:51;1.10;;;1.10;;
12689;SDS011;6409;56.294;14.480;2023-03-11T02:43:26;0.87;;;0.87;;
12689;SDS011;6409;56.294;14.480;2023-03-11T02:45:57;0.83;;;0.83;;
12689;SDS011;6409;56.294;14.480;2023-03-11T02:48:24;0.70;;;0.70;;
12689;SDS011;6409;56.294;14.480;2023-03-11T02:50:51;0.90;;;0.90;;
12689;SDS011;6409;56.294;14.480;2023-03-11T02:53:19;0.83;;;0.83;;
12689;SDS011;6409;56.294;14.480;2023-03-11T02:55:46;1.43;;;1.37;;
12689;SDS011;6409;56.294;14.480;2023-03-11T02:58:12;1.53;;;1.23;;
12689;SDS011;6409;56.294;14.480;2023-03-11T03:00:41;0.80;;;0.80;;
12689;SDS011;6409;56.294;14.480;2023-03-11T03:03:08;0.73;;;0.73;;
12689;SDS011;6409;56.294;14.480;2023-03-11T03:05:35;0.87;;;0.87;;
12689;SDS011;6409;56.294;14.480;2023-03-11T03:08:02;9.50;;;1.43;;
12689;SDS011;6409;56.294;14.480;2023-03-11T03:10:28;0.80;;;0.80;;
12689;SDS011;6409;56.294;14.480;2023-03-11T03:12:55;0.60;;;0.60;;
12689;SDS011;6409;56.294;14.480;2023-03-11T03:15:22;0.83;;;0.83;;
12689;SDS011;6409;56.294;14.480;2023-03-11T03:17:51;1.20;;;1.10;;
12689;SDS011;6409;56.294;14.480;2023-03-11T03:20:18;1.03;;;1.03;;
12689;SDS011;6409;56.294;14.480;2023-03-11T03:22:46;1.47;;;1.00;;
12689;SDS011;6409;56.294;14.480;2023-03-11T03:25:14;1.97;;;0.87;;
12689;SDS011;6409;56.294;14.480;2023-03-11T03:27:41;1.33;;;1.00;;
12689;SDS011;6409;56.294;14.480;2023-03-11T03:30:08;0.67;;;0.67;;
12689;SDS011;6409;56.294;14.480;2023-03-11T03:32:36;0.93;;;0.93;;
12689;SDS011;6409;56.294;14.480;2023-03-11T03:35:05;0.93;;;0.93;;
12689;SDS011;6409;56.294;14.480;2023-03-11T03:37:34;1.00;;;1.00;;
12689;SDS011;6409;56.294;14.480;2023-03-11T03:40:02;0.90;;;0.90;;
12689;SDS011;6409;56.294;14.480;2023-03-11T03:42:32;4.03;;;1.03;;
12689;SDS011;6409;56.294;14.480;2023-03-11T03:44:59;0.87;;;0.83;;
12689;SDS011;6409;56.294;14.480;2023-03-11T03:47:26;0.60;;;0.60;;
12689;SDS011;6409;56.294;14.480;2023-03-11T03:49:53;1.23;;;1.13;;
12689;SDS011;6409;56.294;14.480;2023-03-11T03:52:21;1.47;;;1.00;;
12689;SDS011;6409;56.294;14.480;2023-03-11T03:54:48;1.03;;;0.73;;
12689;SDS011;6409;56.294;14.480;2023-03-11T03:57:15;0.80;;;0.80;;
12689;SDS011;6409;56.294;14.480;2023-03-11T03:59:42;0.90;;;0.90;;
12689;SDS011;6409;56.294;14.480;2023-03-11T04:02:09;0.97;;;0.97;;
12689;SDS011;6409;56.294;14.480;2023-03-11T04:04:36;1.03;;;0.93;;
12689;SDS011;6409;56.294;14.480;2023-03-11T04:07:03;1.23;;;1.13;;
12689;SDS011;6409;56.294;14.480;2023-03-11T04:09:32;0.60;;;0.60;;
12689;SDS011;6409;56.294;14.480;2023-03-11T04:11:59;6.77;;;1.00;;
12689;SDS011;6409;56.294;14.480;2023-03-11T04:14:26;0.90;;;0.90;;
12689;SDS011;6409;56.294;14.480;2023-03-11T04:16:53;0.97;;;0.97;;
12689;SDS011;6409;56.294;14.480;2023-03-11T04:19:20;1.37;;;1.00;;
12689;SDS011;6409;56.294;14.480;2023-03-11T04:21:47;0.80;;;0.80;;
12689;SDS011;6409;56.294;14.480;2023-03-11T04:24:15;1.00;;;0.83;;
12689;SDS011;6409;56.294;14.480;2023-03-11T04:26:44;0.90;;;0.90;;
12689;SDS011;6409;56.294;14.480;2023-03-11T04:29:10;0.90;;;0.90;;
12689;SDS011;6409;56.294;14.480;2023-03-11T04:31:37;0.73;;;0.73;;
12689;SDS011;6409;56.294;14.480;2023-03-11T04:34:04;0.90;;;0.90;;
12689;SDS011;6409;56.294;14.480;2023-03-11T04:36:31;0.80;;;0.80;;
12689;SDS011;6409;56.294;14.480;2023-03-11T04:38:58;1.43;;;1.20;;
12689;SDS011;6409;56.294;14.480;2023-03-11T04:41:25;1.07;;;0.90;;
12689;SDS011;6409;56.294;14.480;2023-03-11T04:43:54;0.70;;;0.70;;
12689;SDS011;6409;56.294;14.480;2023-03-11T04:46:21;1.30;;;1.20;;
12689;SDS011;6409;56.294;14.480;2023-03-11T04:48:47;0.73;;;0.73;;
12689;SDS011;6409;56.294;14.480;2023-03-11T04:51:14;0.70;;;0.70;;
12689;SDS011;6409;56.294;14.480;2023-03-11T04:53:41;1.53;;;1.37;;
12689;SDS011;6409;56.294;14.480;2023-03-11T04:56:08;0.70;;;0.70;;
12689;SDS011;6409;56.294;14.480;2023-03-11T04:58:35;1.03;;;0.93;;
12689;SDS011;6409;56.294;14.480;2023-03-11T05:01:05;0.87;;;0.87;;
12689;SDS011;6409;56.294;14.480;2023-03-11T05:03:32;0.87;;;0.80;;
12689;SDS011;6409;56.294;14.480;2023-03-11T05:05:58;0.87;;;0.60;;
12689;SDS011;6409;56.294;14.480;2023-03-11T05:08:25;0.60;;;0.60;;
12689;SDS011;6409;56.294;14.480;2023-03-11T05:10:52;0.93;;;0.90;;
12689;SDS011;6409;56.294;14.480;2023-03-11T05:13:19;0.70;;;0.70;;
12689;SDS011;6409;56.294;14.480;2023-03-11T05:15:46;0.60;;;0.60;;
12689;SDS011;6409;56.294;14.480;2023-03-11T05:18:15;1.37;;;0.80;;
12689;SDS011;6409;56.294;14.480;2023-03-11T05:20:42;0.90;;;0.80;;
12689;SDS011;6409;56.294;14.480;2023-03-11T05:23:09;0.97;;;0.87;;
12689;SDS011;6409;56.294;14.480;2023-03-11T05:25:36;0.90;;;0.90;;
12689;SDS011;6409;56.294;14.480;2023-03-11T05:28:03;2.07;;;1.07;;
12689;SDS011;6409;56.294;14.480;2023-03-11T05:30:30;1.30;;;1.10;;
12689;SDS011;6409;56.294;14.480;2023-03-11T05:32:57;0.70;;;0.70;;
12689;SDS011;6409;56.294;14.480;2023-03-11T05:35:25;0.93;;;0.80;;
12689;SDS011;6409;56.294;14.480;2023-03-11T05:37:52;0.70;;;0.70;;
12689;SDS011;6409;56.294;14.480;2023-03-11T05:40:19;0.87;;;0.87;;
12689;SDS011;6409;56.294;14.480;2023-03-11T05:42:46;0.77;;;0.77;;
12689;SDS011;6409;56.294;14.480;2023-03-11T05:45:13;0.70;;;0.70;;
12689;SDS011;6409;56.294;14.480;2023-03-11T05:47:41;0.80;;;0.80;;
12689;SDS011;6409;56.294;14.480;2023-03-11T05:50:08;0.80;;;0.80;;
12689;SDS011;6409;56.294;14.480;2023-03-11T05:52:37;1.50;;;0.87;;
12689;SDS011;6409;56.294;14.480;2023-03-11T05:55:04;0.90;;;0.90;;
12689;SDS011;6409;56.294;14.480;2023-03-11T05:57:33;0.97;;;0.97;;
12689;SDS011;6409;56.294;14.480;2023-03-11T06:00:01;0.80;;;0.80;;
12689;SDS011;6409;56.294;14.480;2023-03-11T06:02:30;1.07;;;1.00;;
12689;SDS011;6409;56.294;14.480;2023-03-11T06:04:57;0.83;;;0.83;;
12689;SDS011;6409;56.294;14.480;2023-03-11T06:07:24;0.80;;;0.80;;
12689;SDS011;6409;56.294;14.480;2023-03-11T06:09:52;0.80;;;0.80;;
12689;SDS011;6409;56.294;14.480;2023-03-11T06:12:19;1.10;;;0.97;;
12689;SDS011;6409;56.294;14.480;2023-03-11T06:14:46;0.73;;;0.73;;
12689;SDS011;6409;56.294;14.480;2023-03-11T06:17:13;1.43;;;1.33;;
12689;SDS011;6409;56.294;14.480;2023-03-11T06:19:40;1.20;;;0.80;;
12689;SDS011;6409;56.294;14.480;2023-03-11T06:22:07;0.90;;;0.90;;
12689;SDS011;6409;56.294;14.480;2023-03-11T06:24:34;1.27;;;1.17;;
12689;SDS011;6409;56.294;14.480;2023-03-11T06:27:02;1.20;;;1.10;;
12689;SDS011;6409;56.294;14.480;2023-03-11T06:29:29;0.80;;;0.80;;
12689;SDS011;6409;56.294;14.480;2023-03-11T06:31:56;0.80;;;0.80;;
12689;SDS011;6409;56.294;14.480;2023-03-11T06:34:23;1.03;;;1.03;;
12689;SDS011;6409;56.294;14.480;2023-03-11T06:36:50;0.90;;;0.90;;
12689;SDS011;6409;56.294;14.480;2023-03-11T06:39:18;0.70;;;0.70;;
12689;SDS011;6409;56.294;14.480;2023-03-11T06:41:45;1.63;;;1.10;;
12689;SDS011;6409;56.294;14.480;2023-03-11T06:44:14;0.80;;;0.80;;
12689;SDS011;6409;56.294;14.480;2023-03-11T06:46:41;1.10;;;1.00;;
12689;SDS011;6409;56.294;14.480;2023-03-11T06:49:07;0.70;;;0.70;;
12689;SDS011;6409;56.294;14.480;2023-03-11T06:51:34;1.00;;;1.00;;
12689;SDS011;6409;56.294;14.480;2023-03-11T06:54:01;2.30;;;1.10;;
12689;SDS011;6409;56.294;14.480;2023-03-11T06:56:28;1.00;;;0.93;;
12689;SDS011;6409;56.294;14.480;2023-03-11T06:58:55;1.10;;;1.10;;
12689;SDS011;6409;56.294;14.480;2023-03-11T07:01:24;0.90;;;0.90;;
12689;SDS011;6409;56.294;14.480;2023-03-11T07:03:52;1.03;;;1.03;;
12689;SDS011;6409;56.294;14.480;2023-03-11T07:06:19;0.70;;;0.70;;
12689;SDS011;6409;56.294;14.480;2023-03-11T07:08:47;0.90;;;0.80;;
12689;SDS011;6409;56.294;14.480;2023-03-11T07:11:15;0.90;;;0.90;;
12689;SDS011;6409;56.294;14.480;2023-03-11T07:13:43;1.10;;;1.10;;
12689;SDS011;6409;56.294;14.480;2023-03-11T07:16:11;1.00;;;1.00;;
12689;SDS011;6409;56.294;14.480;2023-03-11T07:18:42;0.97;;;0.97;;
12689;SDS011;6409;56.294;14.480;2023-03-11T07:21:10;0.77;;;0.77;;
12689;SDS011;6409;56.294;14.480;2023-03-11T07:23:37;1.07;;;0.97;;
12689;SDS011;6409;56.294;14.480;2023-03-11T07:26:06;1.70;;;1.10;;
12689;SDS011;6409;56.294;14.480;2023-03-11T07:28:34;0.87;;;0.87;;
12689;SDS011;6409;56.294;14.480;2023-03-11T07:31:05;1.10;;;1.10;;
12689;SDS011;6409;56.294;14.480;2023-03-11T07:33:32;0.77;;;0.77;;
12689;SDS011;6409;56.294;14.480;2023-03-11T07:36:04;1.23;;;1.00;;
12689;SDS011;6409;56.294;14.480;2023-03-11T07:38:32;1.23;;;1.13;;
12689;SDS011;6409;56.294;14.480;2023-03-11T07:40:59;1.10;;;1.10;;
12689;SDS011;6409;56.294;14.480;2023-03-11T07:43:26;0.80;;;0.80;;
12689;SDS011;6409;56.294;14.480;2023-03-11T07:46:00;0.70;;;0.70;;
12689;SDS011;6409;56.294;14.480;2023-03-11T07:48:31;1.90;;;1.33;;
12689;SDS011;6409;56.294;14.480;2023-03-11T07:50:59;1.53;;;1.40;;
12689;SDS011;6409;56.294;14.480;2023-03-11T07:53:31;1.40;;;1.30;;
12689;SDS011;6409;56.294;14.480;2023-03-11T07:55:59;1.10;;;1.00;;
12689;SDS011;6409;56.294;14.480;2023-03-11T07:58:26;0.77;;;0.77;;
12689;SDS011;6409;56.294;14.480;2023-03-11T08:00:53;1.00;;;1.00;;
12689;SDS011;6409;56.294;14.480;2023-03-11T08:03:21;1.07;;;1.03;;
12689;SDS011;6409;56.294;14.480;2023-03-11T08:05:49;1.10;;;1.10;;
12689;SDS011;6409;56.294;14.480;2023-03-11T08:08:16;0.97;;;0.97;;
12689;SDS011;6409;56.294;14.480;2023-03-11T08:10:44;1.20;;;1.20;;
12689;SDS011;6409;56.294;14.480;2023-03-11T08:13:11;1.10;;;1.10;;
12689;SDS011;6409;56.294;14.480;2023-03-11T08:15:38;1.60;;;1.50;;
12689;SDS011;6409;56.294;14.480;2023-03-11T08:18:05;1.13;;;1.13;;
12689;SDS011;6409;56.294;14.480;2023-03-11T08:20:32;1.53;;;1.50;;
12689;SDS011;6409;56.294;14.480;2023-03-11T08:22:59;1.40;;;1.40;;
12689;SDS011;6409;56.294;14.480;2023-03-11T08:25:26;1.60;;;1.50;;
12689;SDS011;6409;56.294;14.480;2023-03-11T08:27:55;1.70;;;1.60;;
12689;SDS011;6409;56.294;14.480;2023-03-11T08:30:22;1.73;;;1.63;;
12689;SDS011;6409;56.294;14.480;2023-03-11T08:32:49;1.50;;;1.50;;
12689;SDS011;6409;56.294;14.480;2023-03-11T08:35:16;1.50;;;1.40;;
12689;SDS011;6409;56.294;14.480;2023-03-11T08:37:43;1.77;;;1.67;;
12689;SDS011;6409;56.294;14.480;2023-03-11T08:40:10;1.63;;;1.60;;
12689;SDS011;6409;56.294;14.480;2023-03-11T08:42:38;2.00;;;1.90;;
12689;SDS011;6409;56.294;14.480;2023-03-11T08:45:08;1.60;;;1.60;;
12689;SDS011;6409;56.294;14.480;2023-03-11T08:47:35;2.00;;;1.90;;
12689;SDS011;6409;56.294;14.480;2023-03-11T08:50:03;2.20;;;2.10;;
12689;SDS011;6409;56.294;14.480;2023-03-11T08:52:31;2.10;;;2.00;;
12689;SDS011;6409;56.294;14.480;2023-03-11T08:54:58;2.10;;;2.00;;
12689;SDS011;6409;56.294;14.480;2023-03-11T08:57:25;1.70;;;1.70;;
12689;SDS011;6409;56.294;14.480;2023-03-11T08:59:52;2.37;;;2.17;;
12689;SDS011;6409;56.294;14.480;2023-03-11T09:02:20;1.90;;;1.80;;
12689;SDS011;6409;56.294;14.480;2023-03-11T09:04:47;2.40;;;2.20;;
12689;SDS011;6409;56.294;14.480;2023-03-11T09:07:14;3.70;;;1.97;;
12689;SDS011;6409;56.294;14.480;2023-03-11T09:09:41;2.20;;;2.10;;
12689;SDS011;6409;56.294;14.480;2023-03-11T09:12:08;1.90;;;1.80;;
12689;SDS011;6409;56.294;14.480;2023-03-11T09:14:38;1.50;;;1.50;;
12689;SDS011;6409;56.294;14.480;2023-03-11T09:17:05;2.70;;;1.87;;
12689;SDS011;6409;56.294;14.480;2023-03-11T09:19:33;2.60;;;1.73;;
12689;SDS011;6409;56.294;14.480;2023-03-11T09:22:01;1.90;;;1.80;;
12689;SDS011;6409;56.294;14.480;2023-03-11T09:24:28;1.60;;;1.50;;
12689;SDS011;6409;56.294;14.480;2023-03-11T09:26:57;1.50;;;1.50;;
12689;SDS011;6409;56.294;14.480;2023-03-11T09:29:24;1.83;;;1.73;;
12689;SDS011;6409;56.294;14.480;2023-03-11T09:31:51;1.60;;;1.60;;
12689;SDS011;6409;56.294;14.480;2023-03-11T09:34:18;1.80;;;1.70;;
12689;SDS011;6409;56.294;14.480;2023-03-11T09:36:46;2.20;;;1.70;;
12689;SDS011;6409;56.294;14.480;2023-03-11T09:39:13;1.57;;;1.50;;
12689;SDS011;6409;56.294;14.480;2023-03-11T09:41:40;2.87;;;1.50;;
12689;SDS011;6409;56.294;14.480;2023-03-11T09:44:15;2.17;;;1.70;;
12689;SDS011;6409;56.294;14.480;2023-03-11T09:46:59;1.70;;;1.60;;
12689;SDS011;6409;56.294;14.480;2023-03-11T09:49:37;1.53;;;1.50;;
12689;SDS011;6409;56.294;14.480;2023-03-11T09:52:10;1.80;;;1.70;;
12689;SDS011;6409;56.294;14.480;2023-03-11T09:54:39;1.90;;;1.80;;
12689;SDS011;6409;56.294;14.480;2023-03-11T09:57:10;1.80;;;1.70;;
12689;SDS011;6409;56.294;14.480;2023-03-11T09:59:38;1.40;;;1.40;;
12689;SDS011;6409;56.294;14.480;2023-03-11T10:02:09;1.50;;;1.50;;
12689;SDS011;6409;56.294;14.480;2023-03-11T10:04:41;1.80;;;1.70;;
12689;SDS011;6409;56.294;14.480;2023-03-11T10:07:12;1.30;;;1.30;;
12689;SDS011;6409;56.294;14.480;2023-03-11T10:09:46;1.60;;;1.50;;
12689;SDS011;6409;56.294;14.480;2023-03-11T10:12:19;1.40;;;1.40;;
12689;SDS011;6409;56.294;14.480;2023-03-11T10:14:57;1.30;;;1.30;;
12689;SDS011;6409;56.294;14.480;2023-03-11T10:17:41;2.53;;;1.50;;
12689;SDS011;6409;56.294;14.480;2023-03-11T10:20:14;4.77;;;1.67;;
12689;SDS011;6409;56.294;14.480;2023-03-11T10:22:49;1.40;;;1.40;;
12689;SDS011;6409;56.294;14.480;2023-03-11T10:25:20;2.20;;;1.60;;
12689;SDS011;6409;56.294;14.480;2023-03-11T10:27:50;1.67;;;1.60;;
12689;SDS011;6409;56.294;14.480;2023-03-11T10:30:22;1.80;;;1.70;;
12689;SDS011;6409;56.294;14.480;2023-03-11T10:32:52;1.43;;;1.43;;
12689;SDS011;6409;56.294;14.480;2023-03-11T10:35:22;2.00;;;1.83;;
12689;SDS011;6409;56.294;14.480;2023-03-11T10:37:52;4.70;;;1.73;;
12689;SDS011;6409;56.294;14.480;2023-03-11T10:40:25;1.40;;;1.40;;
12689;SDS011;6409;56.294;14.480;2023-03-11T10:42:55;1.83;;;1.70;;
12689;SDS011;6409;56.294;14.480;2023-03-11T10:45:23;1.60;;;1.50;;
12689;SDS011;6409;56.294;14.480;2023-03-11T10:47:51;1.77;;;1.67;;
12689;SDS011;6409;56.294;14.480;2023-03-11T10:50:18;1.40;;;1.40;;
12689;SDS011;6409;56.294;14.480;2023-03-11T10:55:32;6.47;;;2.37;;
12689;SDS011;6409;56.294;14.480;2023-03-11T10:58:04;2.30;;;2.20;;
12689;SDS011;6409;56.294;14.480;2023-03-11T11:00:32;2.40;;;2.30;;
12689;SDS011;6409;56.294;14.480;2023-03-11T11:02:59;2.67;;;2.57;;
12689;SDS011;6409;56.294;14.480;2023-03-11T11:05:29;2.80;;;2.70;;
12689;SDS011;6409;56.294;14.480;2023-03-11T11:08:06;2.63;;;2.50;;
12689;SDS011;6409;56.294;14.480;2023-03-11T11:10:34;2.40;;;2.30;;
12689;SDS011;6409;56.294;14.480;2023-03-11T11:13:04;2.40;;;2.30;;
12689;SDS011;6409;56.294;14.480;2023-03-11T11:15:51;2.90;;;2.50;;
12689;SDS011;6409;56.294;14.480;2023-03-11T11:18:20;2.53;;;2.43;;
12689;SDS011;6409;56.294;14.480;2023-03-11T11:23:36;2.50;;;2.40;;
12689;SDS011;6409;56.294;14.480;2023-03-11T11:26:09;2.87;;;2.67;;
12689;SDS011;6409;56.294;14.480;2023-03-11T11:28:41;2.80;;;2.70;;
12689;SDS011;6409;56.294;14.480;2023-03-11T11:31:18;2.70;;;2.60;;
12689;SDS011;6409;56.294;14.480;2023-03-11T11:33:48;2.63;;;2.53;;
12689;SDS011;6409;56.294;14.480;2023-03-11T11:36:16;2.40;;;2.30;;
12689;SDS011;6409;56.294;14.480;2023-03-11T11:38:45;2.60;;;2.50;;
12689;SDS011;6409;56.294;14.480;2023-03-11T11:41:12;2.60;;;2.40;;
12689;SDS011;6409;56.294;14.480;2023-03-11T11:43:43;2.33;;;2.23;;
12689;SDS011;6409;56.294;14.480;2023-03-11T11:46:17;2.30;;;2.20;;
12689;SDS011;6409;56.294;14.480;2023-03-11T11:48:48;2.40;;;2.30;;
12689;SDS011;6409;56.294;14.480;2023-03-11T11:51:19;2.30;;;2.20;;
12689;SDS011;6409;56.294;14.480;2023-03-11T11:53:50;2.30;;;2.20;;
12689;SDS011;6409;56.294;14.480;2023-03-11T11:56:22;2.20;;;2.10;;
12689;SDS011;6409;56.294;14.480;2023-03-11T11:58:50;2.10;;;2.00;;
12689;SDS011;6409;56.294;14.480;2023-03-11T12:01:20;2.20;;;2.10;;
12689;SDS011;6409;56.294;14.480;2023-03-11T12:07:03;2.00;;;2.00;;
12689;SDS011;6409;56.294;14.480;2023-03-11T12:09:51;1.90;;;1.90;;
12689;SDS011;6409;56.294;14.480;2023-03-11T12:12:24;2.20;;;2.10;;
12689;SDS011;6409;56.294;14.480;2023-03-11T12:14:55;2.37;;;2.27;;
12689;SDS011;6409;56.294;14.480;2023-03-11T12:17:26;1.90;;;1.90;;
12689;SDS011;6409;56.294;14.480;2023-03-11T12:19:53;1.93;;;1.90;;
12689;SDS011;6409;56.294;14.480;2023-03-11T12:22:27;2.10;;;2.00;;
12689;SDS011;6409;56.294;14.480;2023-03-11T12:25:27;1.80;;;1.80;;
12689;SDS011;6409;56.294;14.480;2023-03-11T12:27:58;2.10;;;2.00;;
12689;SDS011;6409;56.294;14.480;2023-03-11T12:30:29;2.10;;;2.00;;
12689;SDS011;6409;56.294;14.480;2023-03-11T12:32:58;2.17;;;2.07;;
12689;SDS011;6409;56.294;14.480;2023-03-11T12:35:27;2.00;;;2.00;;
12689;SDS011;6409;56.294;14.480;2023-03-11T12:38:03;2.13;;;2.03;;
12689;SDS011;6409;56.294;14.480;2023-03-11T12:40:44;1.80;;;1.80;;
12689;SDS011;6409;56.294;14.480;2023-03-11T12:43:22;1.90;;;1.90;;
12689;SDS011;6409;56.294;14.480;2023-03-11T12:45:54;1.90;;;1.90;;
12689;SDS011;6409;56.294;14.480;2023-03-11T12:48:24;2.10;;;2.00;;
12689;SDS011;6409;56.294;14.480;2023-03-11T12:50:58;1.90;;;1.90;;
12689;SDS011;6409;56.294;14.480;2023-03-11T12:53:40;1.80;;;1.80;;
12689;SDS011;6409;56.294;14.480;2023-03-11T12:56:12;2.00;;;1.90;;
12689;SDS011;6409;56.294;14.480;2023-03-11T12:58:50;2.00;;;1.90;;
12689;SDS011;6409;56.294;14.480;2023-03-11T13:04:35;1.90;;;1.90;;
12689;SDS011;6409;56.294;14.480;2023-03-11T13:10:09;1.80;;;1.80;;
12689;SDS011;6409;56.294;14.480;2023-03-11T13:12:40;1.97;;;1.90;;
12689;SDS011;6409;56.294;14.480;2023-03-11T13:18:00;1.73;;;1.70;;
12689;SDS011;6409;56.294;14.480;2023-03-11T13:32:05;1.80;;;1.70;;
12689;SDS011;6409;56.294;14.480;2023-03-11T13:34:43;1.90;;;1.90;;
12689;SDS011;6409;56.294;14.480;2023-03-11T13:37:17;1.80;;;1.80;;
12689;SDS011;6409;56.294;14.480;2023-03-11T13:39:52;1.80;;;1.80;;
12689;SDS011;6409;56.294;14.480;2023-03-11T13:42:28;2.00;;;1.90;;
12689;SDS011;6409;56.294;14.480;2023-03-11T13:44:57;2.00;;;2.00;;
12689;SDS011;6409;56.294;14.480;2023-03-11T13:47:26;2.17;;;2.07;;
12689;SDS011;6409;56.294;14.480;2023-03-11T13:49:58;2.00;;;2.00;;
12689;SDS011;6409;56.294;14.480;2023-03-11T13:52:28;2.00;;;2.00;;
12689;SDS011;6409;56.294;14.480;2023-03-11T13:54:58;2.00;;;1.90;;
12689;SDS011;6409;56.294;14.480;2023-03-11T13:57:28;2.83;;;2.10;;
12689;SDS011;6409;56.294;14.480;2023-03-11T13:59:57;2.00;;;2.00;;
12689;SDS011;6409;56.294;14.480;2023-03-11T14:02:46;2.10;;;1.90;;
12689;SDS011;6409;56.294;14.480;2023-03-11T14:05:16;2.40;;;2.20;;
12689;SDS011;6409;56.294;14.480;2023-03-11T14:07:47;2.00;;;2.00;;
12689;SDS011;6409;56.294;14.480;2023-03-11T14:10:15;1.90;;;1.90;;
12689;SDS011;6409;56.294;14.480;2023-03-11T14:12:50;1.97;;;1.97;;
12689;SDS011;6409;56.294;14.480;2023-03-11T14:15:19;1.77;;;1.77;;
12689;SDS011;6409;56.294;14.480;2023-03-11T14:17:49;1.90;;;1.90;;
12689;SDS011;6409;56.294;14.480;2023-03-11T14:20:17;3.33;;;1.90;;
12689;SDS011;6409;56.294;14.480;2023-03-11T14:22:46;2.27;;;2.10;;
12689;SDS011;6409;56.294;14.480;2023-03-11T14:25:18;2.67;;;2.43;;
12689;SDS011;6409;56.294;14.480;2023-03-11T14:27:50;1.90;;;1.90;;
12689;SDS011;6409;56.294;14.480;2023-03-11T14:30:21;1.70;;;1.70;;
12689;SDS011;6409;56.294;14.480;2023-03-11T14:32:58;1.80;;;1.80;;
12689;SDS011;6409;56.294;14.480;2023-03-11T14:35:26;1.90;;;1.90;;
12689;SDS011;6409;56.294;14.480;2023-03-11T14:37:53;1.90;;;1.80;;
12689;SDS011;6409;56.294;14.480;2023-03-11T14:40:22;1.70;;;1.70;;
12689;SDS011;6409;56.294;14.480;2023-03-11T14:42:51;1.77;;;1.77;;
12689;SDS011;6409;56.294;14.480;2023-03-11T14:45:20;1.77;;;1.77;;
12689;SDS011;6409;56.294;14.480;2023-03-11T14:47:48;1.70;;;1.70;;
12689;SDS011;6409;56.294;14.480;2023-03-11T14:50:20;1.60;;;1.60;;
12689;SDS011;6409;56.294;14.480;2023-03-11T14:52:49;1.67;;;1.67;;
12689;SDS011;6409;56.294;14.480;2023-03-11T14:55:19;1.80;;;1.80;;
12689;SDS011;6409;56.294;14.480;2023-03-11T14:57:48;1.90;;;1.90;;
12689;SDS011;6409;56.294;14.480;2023-03-11T15:00:18;1.70;;;1.70;;
12689;SDS011;6409;56.294;14.480;2023-03-11T15:02:58;1.70;;;1.70;;
12689;SDS011;6409;56.294;14.480;2023-03-11T15:05:32;1.80;;;1.80;;
12689;SDS011;6409;56.294;14.480;2023-03-11T15:08:01;1.60;;;1.60;;
12689;SDS011;6409;56.294;14.480;2023-03-11T15:10:29;1.60;;;1.60;;
12689;SDS011;6409;56.294;14.480;2023-03-11T15:13:04;2.40;;;2.20;;
12689;SDS011;6409;56.294;14.480;2023-03-11T15:15:32;1.90;;;1.90;;
12689;SDS011;6409;56.294;14.480;2023-03-11T15:17:59;2.00;;;2.00;;
12689;SDS011;6409;56.294;14.480;2023-03-11T15:20:27;1.70;;;1.70;;
12689;SDS011;6409;56.294;14.480;2023-03-11T15:22:57;1.70;;;1.70;;
12689;SDS011;6409;56.294;14.480;2023-03-11T15:25:26;2.13;;;2.03;;
12689;SDS011;6409;56.294;14.480;2023-03-11T15:27:55;2.03;;;1.93;;
12689;SDS011;6409;56.294;14.480;2023-03-11T15:30:23;1.80;;;1.80;;